Altdorf, Wisconsin
Current Conditions -  °F | °C
As of 2:54 PM on Friday 24 Oct 2014 (Local Time) from KISW Reporting Station
Broken Clouds Broken Clouds  
Wind Chill: 60°   Ceiling: 8000
Heat Index: 60°   Visibility: 10mi
Dew Point: 49°   Wind: 6mph
Humidity: 67%   Direction: 180°S
Pressure: 29.91"   Gusts: NA
Location:  44.4583°N, 90.0009°W
Report Text: KISW 241954Z AUTO 18005KT 10SM BKN080 16/09 A2991 RMK AO2 SLP132 T01560094
Loading
Personal Weather Stations






























Interactive Weather Map New forecast layout! Learn more

10-Day Weather Forecast

Advertisements
Track Severe Weather on mobile